Nearby METAR Reports

 

KLBE - Latrobe/Westmorl, Pennsylvania, USA
Distance from station: SE 16mi, 26km
Updated: Sun, 01-Feb-2015 12:50pm EST
Light snow, Overcast
Light snow, Overcast
 Wind from WSW
Wind: WSW 7 mph , 11 km/h
Temperature: 32°F , 0°C
Wind Chill: 25°F , -4°C
Dew Point: 32°F , 0°C
Humidity: 100%
Barometer: 30.05 inHg , 1017.6 hPa
Summary: Light Snow
Clouds: Overcast
Visibility: 1 1/4 miles , 2 km
Cloud details: Mostly cloudy 300 ft
Mostly cloudy 2200 ft
Overcast 6000 ft
2015/02/01 17:50 KLBE 011750Z 25006KT 1 1/4SM -SN BKN003 BKN022 OVC060 00/00 A3005
KAGC - Pittsburgh/Alleg, Pennsylvania, USA
Distance from station: WSW 18mi, 30km
Updated: Sun, 01-Feb-2015 1:00pm EST
Snow, Freezing, Fog, Overcast
Snow, Freezing, Fog, Overcast
 Wind from SE
Wind: SE 6 mph , 9 km/h
Temperature: 30°F , -1°C
Wind Chill: 24°F , -4°C
Dew Point: 27°F , -3°C
Humidity: 86%
Barometer: 30.00 inHg , 1015.9 hPa
Summary: Snow, Freezing, Fog
Clouds: Overcast
Visibility: 1/2 mile , 2 km
Cloud details: Mostly cloudy 400 ft
Overcast 1500 ft
2015/02/01 18:00 KAGC 011800Z 14005KT 1/2SM R28/3000V4500FT SN FZFG BKN004 OVC015 M01/M03 A3000 RMK AO2 P0001 T10111028
 
KBTP - Butler Co., Pennsylvania, USA
Distance from station: NW 29mi, 47km
Updated: Sun, 01-Feb-2015 12:55pm EST
Overcast
Overcast
 Wind from SE
Wind: SE 5 mph , 7 km/h
Temperature: 28°F , -2°C
Wind Chill: 22°F , -6°C
Dew Point: 27°F , -3°C
Humidity: 93%
Barometer: 30.04 inHg , 1017.3 hPa
Clouds: Overcast
Visibility: 1 mile , 2 km
Cloud details: Overcast 700 ft
2015/02/01 17:55 KBTP 011755Z AUTO 14004KT 1SM OVC007 M02/M03 A3004 RMK AO1 P0001 60001 11020 21040 57041
KIDI - Indiana/Stewart, Pennsylvania, USA
Distance from station: ENE 29mi, 47km
Updated: Sun, 01-Feb-2015 12:55pm EST
Mist, Mostly cloudy
Mist, Mostly cloudy
 Wind from calm
Wind: Calm
Temperature: 30°F , -1°C
Dew Point: 30°F , -1°C
Humidity: 100%
Barometer: 30.07 inHg , 1018.3 hPa
Summary: Mist
Clouds: Mostly cloudy
Visibility: 1 mile , 2 km
Cloud details: Mostly cloudy 900 ft
2015/02/01 17:55 KIDI 011755Z AUTO 00000KT 1SM BR BKN009 M01/M01 A3007 RMK A01
 
KPIT - Pittsburgh, Pennsylvania, USA
Distance from station: W 36mi, 57km
Updated: Sun, 01-Feb-2015 12:51pm EST
Snow, Mist, Overcast
Snow, Mist, Overcast
 Wind from SE
Wind: SE 8 mph , 13 km/h
Temperature: 30°F , -1°C
Wind Chill: 22°F , -6°C
Dew Point: 28°F , -2°C
Humidity: 93%
Barometer: 30.01 inHg , 1016.3 hPa
Summary: Snow, Mist
Clouds: Overcast
Visibility: 1/2 mile , 2 km
Cloud details: Few Clouds 300 ft
Mostly cloudy 900 ft
Overcast 1700 ft
2015/02/01 17:51 KPIT 011751Z 13007KT 1/2SM R28R/3500FT SN BR FEW003 BKN009 OVC017 M01/M02 A3001 RMK AO2 PRESFR SLP184 P0003 60007 T10111017 11006 21033 58043
KJST - Johnstown, Pennsylvania, USA
Distance from station: ESE 41mi, 66km
Updated: Sun, 01-Feb-2015 1:01pm EST
Light snow, Mist, Overcast
Light snow, Mist, Overcast
 Wind from SSW
Wind: SSW 8 mph , 13 km/h
Temperature: 30°F , -1°C
Wind Chill: 22°F , -6°C
Dew Point: 28°F , -2°C
Humidity: 93%
Barometer: 29.99 inHg , 1015.6 hPa
Summary: Light snow, Mist
Clouds: Overcast
Visibility: 1 mile , 2 km
Cloud details: Partly cloudy 800 ft
Mostly cloudy 2000 ft
Overcast 2900 ft
2015/02/01 18:01 KJST 011801Z AUTO 21007KT 1SM -SN BR SCT008 BKN020 OVC029 M01/M02 A2999 RMK AO2 P0000 T10061022
 
KAFJ - Washington, Pennsylvania, USA
Distance from station: WSW 42mi, 68km
Updated: Sun, 01-Feb-2015 12:55pm EST
Mostly cloudy
Mostly cloudy
 Wind from E
Wind: E 5 mph , 7 km/h
Temperature: 32°F , 0°C
Wind Chill: 27°F , -3°C
Dew Point: 28°F , -2°C
Humidity: 87%
Barometer: 30.01 inHg , 1016.3 hPa
Clouds: Mostly cloudy
Visibility: 7 miles , 11 km
Cloud details: Few Clouds 800 ft
Partly cloudy 1700 ft
Mostly cloudy 2300 ft
2015/02/01 17:55 KAFJ 011755Z AUTO 10004KT 7SM FEW008 SCT017 BKN023 00/M02 A3001 RMK AO1 P0002 60007 10000 21030 57047
KBVI - Beaver Falls Arp, Pennsylvania, USA
Distance from station: WNW 48mi, 77km
Updated: Sun, 01-Feb-2015 12:47pm EST
Light snow, Overcast
Light snow, Overcast
 Wind from SE
Wind: SE 5 mph , 7 km/h
Temperature: 30°F , -1°C
Wind Chill: 25°F , -4°C
Dew Point: 28°F , -2°C
Humidity: 93%
Barometer: 30.01 inHg , 1016.3 hPa
Summary: Light Snow
Clouds: Overcast
Visibility: 1/2 mile , 2 km
Cloud details: Overcast 500 ft
2015/02/01 17:47 KBVI 011747Z 14004KT 1/2SM -SN OVC005 M01/M02 A3001